Time;durP1;ratioP1;P1;durP2;ratioP2;P2;SDS_P1;SDS_P2;PMS_P1;PMS_P2;Temp;Humidity;BMP_temperature;BMP_pressure;BME280_temperature;BME280_humidity;BME280_pressure;Samples;Min_cycle;Max_cycle;Signal;HPM_P1;HPM_P2
2021/12/11 00:01:15;;;;;;;;;;;22.40;39.70;;;;;;5103035;28;19912;-81
2021/12/11 00:03:42;;;;;;;;;;;22.40;39.70;;;;;;5102839;28;19908;-84
2021/12/11 00:06:07;;;;;;;;;;;22.40;39.70;;;;;;5119471;28;20002;-80
2021/12/11 00:08:33;;;;;;;;;;;22.40;39.70;;;;;;5118746;28;20359;-78
2021/12/11 00:11:04;;;;;;;;;;;22.40;39.70;;;;;;5103592;28;19907;-78
2021/12/11 00:13:36;;;;;;;;;;;22.40;39.70;;;;;;5124272;28;19972;-80
2021/12/11 00:16:02;;;;;;;;;;;22.40;39.70;;;;;;5125259;28;19920;-79
2021/12/11 00:18:27;;;;;;;;;;;22.40;39.80;;;;;;5105372;28;19977;-80
2021/12/11 00:20:54;;;;;;;;;;;22.30;39.70;;;;;;5104507;28;19919;-77
2021/12/11 00:23:23;;;;;;;;;;;22.30;39.70;;;;;;5122169;28;20270;-80
2021/12/11 00:25:52;;;;;;;;;;;22.30;39.70;;;;;;5118190;28;19912;-81
2021/12/11 00:28:17;;;;;;;;;;;22.30;39.70;;;;;;5118985;28;19922;-82
2021/12/11 00:30:43;;;;;;;;;;;22.30;40.30;;;;;;5118810;28;19912;-79
2021/12/11 00:33:11;;;;;;;;;;;22.30;39.80;;;;;;5100728;28;19998;-80
2021/12/11 00:35:36;;;;;;;;;;;22.30;39.80;;;;;;5118801;28;20078;-83
2021/12/11 00:38:03;;;;;;;;;;;22.30;39.80;;;;;;5100700;28;20363;-80
2021/12/11 00:40:29;;;;;;;;;;;22.30;39.80;;;;;;5118645;28;20359;-82
2021/12/11 00:42:56;;;;;;;;;;;22.30;39.80;;;;;;5117835;28;20357;-79
2021/12/11 00:45:23;;;;;;;;;;;22.30;39.90;;;;;;5117677;28;19908;-80
2021/12/11 00:47:55;;;;;;;;;;;22.30;39.90;;;;;;5100402;28;19908;-78
2021/12/11 00:50:25;;;;;;;;;;;22.30;39.90;;;;;;5100832;28;19908;-86
2021/12/11 00:53:10;;;;;;;;;;;22.20;39.90;;;;;;5117520;28;20421;-78
2021/12/11 00:55:39;;;;;;;;;;;22.30;40.00;;;;;;5106470;28;19919;-80
2021/12/11 00:58:11;;;;;;;;;;;22.20;39.90;;;;;;5117392;28;19912;-83
2021/12/11 01:00:38;;;;;;;;;;;22.20;40.00;;;;;;5118076;28;19919;-81
2021/12/11 01:03:04;;;;;;;;;;;22.20;40.60;;;;;;5100495;28;19973;-80
2021/12/11 01:05:42;;;;;;;;;;;22.20;39.90;;;;;;5117748;28;20352;-80
2021/12/11 01:08:14;;;;;;;;;;;22.20;40.00;;;;;;5117204;28;19918;-79
2021/12/11 01:10:40;;;;;;;;;;;22.20;40.00;;;;;;5117648;28;19947;-80
2021/12/11 01:13:06;;;;;;;;;;;22.20;40.00;;;;;;5117148;28;19908;-82
2021/12/11 01:15:32;;;;;;;;;;;22.20;40.00;;;;;;5116932;28;20340;-79
2021/12/11 01:18:21;;;;;;;;;;;22.20;40.00;;;;;;5117675;28;20018;-80
2021/12/11 01:20:55;;;;;;;;;;;22.20;40.00;;;;;;5117871;28;19912;-80
2021/12/11 01:23:35;;;;;;;;;;;22.20;40.00;;;;;;5117746;28;19908;-81
2021/12/11 01:26:01;;;;;;;;;;;22.20;40.10;;;;;;5117021;28;19908;-81
2021/12/11 01:28:27;;;;;;;;;;;22.10;40.00;;;;;;5116949;28;19969;-80
2021/12/11 01:30:53;;;;;;;;;;;22.20;40.10;;;;;;5116664;28;20339;-82
2021/12/11 01:33:18;;;;;;;;;;;22.20;40.10;;;;;;5116532;28;20336;-80
2021/12/11 01:35:46;;;;;;;;;;;22.20;40.10;;;;;;5099377;28;19977;-84
2021/12/11 01:38:14;;;;;;;;;;;22.10;40.00;;;;;;5116384;28;19912;-80
2021/12/11 01:40:40;;;;;;;;;;;22.10;40.00;;;;;;5116435;28;19908;-79
2021/12/11 01:43:06;;;;;;;;;;;22.10;40.10;;;;;;5116527;28;19964;-82
2021/12/11 01:45:32;;;;;;;;;;;22.10;40.10;;;;;;5116396;28;20383;-79
2021/12/11 01:47:59;;;;;;;;;;;22.10;40.10;;;;;;5116218;28;19912;-82
2021/12/11 01:50:27;;;;;;;;;;;22.10;40.20;;;;;;5116220;28;19918;-80
2021/12/11 01:52:58;;;;;;;;;;;22.10;40.10;;;;;;5117097;28;19907;-81
2021/12/11 01:55:39;;;;;;;;;;;22.10;40.10;;;;;;5116065;28;19912;-84
2021/12/11 01:58:06;;;;;;;;;;;22.10;40.20;;;;;;5116075;28;19918;-81
2021/12/11 02:01:17;;;;;;;;;;;22.10;39.60;;;;;;5113224;27;19912;-81
2021/12/11 02:03:45;;;;;;;;;;;22.10;40.20;;;;;;5146540;27;19916;-80
2021/12/11 02:06:15;;;;;;;;;;;22.10;40.20;;;;;;5146683;27;19908;-83
2021/12/11 02:08:41;;;;;;;;;;;22.00;40.10;;;;;;5145847;27;20352;-79
2021/12/11 02:11:09;;;;;;;;;;;22.10;40.20;;;;;;5129094;28;19918;-81
2021/12/11 02:13:50;;;;;;;;;;;22.10;40.20;;;;;;5146526;27;19908;-82
2021/12/11 02:16:21;;;;;;;;;;;22.10;40.20;;;;;;5144978;27;19995;-80
2021/12/11 02:18:50;;;;;;;;;;;22.10;40.20;;;;;;5111863;28;20252;-79
2021/12/11 02:21:18;;;;;;;;;;;22.10;40.20;;;;;;5128359;28;19919;-79
2021/12/11 02:23:43;;;;;;;;;;;22.00;40.10;;;;;;5112657;28;19995;-79
2021/12/11 02:26:15;;;;;;;;;;;22.10;40.20;;;;;;5146125;27;20369;-79
2021/12/11 02:28:43;;;;;;;;;;;22.00;40.10;;;;;;5112168;28;19946;-79
2021/12/11 02:31:11;;;;;;;;;;;22.00;40.10;;;;;;5145959;27;19908;-82
2021/12/11 02:33:40;;;;;;;;;;;22.00;40.10;;;;;;5112429;28;19908;-79
2021/12/11 02:36:18;;;;;;;;;;;22.10;40.20;;;;;;5145889;27;19908;-83
2021/12/11 02:38:59;;;;;;;;;;;22.10;40.20;;;;;;5111537;28;19908;-80
2021/12/11 02:41:27;;;;;;;;;;;22.10;40.20;;;;;;5111360;28;19908;-80
2021/12/11 02:44:31;;;;;;;;;;;22.00;40.10;;;;;;5112371;28;19919;-81
2021/12/11 02:46:56;;;;;;;;;;;22.00;40.10;;;;;;5090296;28;19943;-79
2021/12/11 02:49:27;;;;;;;;;;;22.00;40.20;;;;;;5103165;28;20344;-83
2021/12/11 02:51:55;;;;;;;;;;;22.00;40.70;;;;;;5128260;28;20372;-79
2021/12/11 02:54:28;;;;;;;;;;;22.00;40.10;;;;;;5111568;28;19955;-81
2021/12/11 02:56:56;;;;;;;;;;;22.00;40.20;;;;;;5127872;28;20006;-82
2021/12/11 02:59:27;;;;;;;;;;;22.00;40.20;;;;;;5145113;27;19920;-80
2021/12/11 03:01:58;;;;;;;;;;;22.00;40.20;;;;;;5143875;27;19922;-81
2021/12/11 03:04:26;;;;;;;;;;;22.00;40.30;;;;;;5110904;28;20329;-78
2021/12/11 03:06:55;;;;;;;;;;;22.00;40.20;;;;;;5144889;27;19916;-80
2021/12/11 03:09:23;;;;;;;;;;;22.00;40.20;;;;;;5110965;28;19908;-79
2021/12/11 03:11:53;;;;;;;;;;;22.00;40.20;;;;;;5135824;27;19995;-79
2021/12/11 03:14:18;;;;;;;;;;;22.00;40.30;;;;;;5130991;27;19999;-81
2021/12/11 03:16:44;;;;;;;;;;;22.00;40.20;;;;;;5114117;28;19962;-83
2021/12/11 03:19:11;;;;;;;;;;;22.00;40.10;;;;;;5098010;28;19912;-82
2021/12/11 03:21:39;;;;;;;;;;;22.00;40.20;;;;;;5097890;28;19908;-81
2021/12/11 03:24:05;;;;;;;;;;;22.00;40.20;;;;;;5131188;27;20344;-78
2021/12/11 03:26:33;;;;;;;;;;;22.00;40.30;;;;;;5097737;28;19908;-81
2021/12/11 03:28:59;;;;;;;;;;;22.00;40.30;;;;;;5130880;27;20168;-82
2021/12/11 03:31:24;;;;;;;;;;;22.00;40.20;;;;;;5131185;27;20341;-80
2021/12/11 03:33:53;;;;;;;;;;;22.00;40.20;;;;;;5113934;28;19908;-81
2021/12/11 03:36:19;;;;;;;;;;;22.00;40.30;;;;;;5130799;27;19908;-80
2021/12/11 03:38:47;;;;;;;;;;;22.00;40.30;;;;;;5113674;28;19915;-80
2021/12/11 03:41:12;;;;;;;;;;;21.90;40.30;;;;;;5130895;27;19922;-80
2021/12/11 03:43:40;;;;;;;;;;;21.90;40.30;;;;;;5097416;28;19908;-77
2021/12/11 03:46:06;;;;;;;;;;;21.90;40.30;;;;;;5097460;28;19915;-81
2021/12/11 03:48:35;;;;;;;;;;;21.90;40.30;;;;;;5097404;28;20337;-79
2021/12/11 03:51:01;;;;;;;;;;;21.90;40.40;;;;;;5130593;27;19991;-83
2021/12/11 03:53:27;;;;;;;;;;;21.90;40.40;;;;;;5130648;27;20374;-80
2021/12/11 03:55:54;;;;;;;;;;;21.90;40.40;;;;;;5096628;28;19920;-82
2021/12/11 03:58:19;;;;;;;;;;;21.90;40.40;;;;;;5096344;28;19939;-84
2021/12/11 04:00:55;;;;;;;;;;;21.90;40.40;;;;;;5097038;28;20345;-82
2021/12/11 04:03:22;;;;;;;;;;;21.90;40.40;;;;;;5096349;28;20312;-79
2021/12/11 04:05:50;;;;;;;;;;;21.90;40.40;;;;;;5130594;27;19961;-84
2021/12/11 04:08:20;;;;;;;;;;;21.90;40.40;;;;;;5129720;27;19908;-81
2021/12/11 04:10:48;;;;;;;;;;;21.90;40.40;;;;;;5113100;28;19931;-80
2021/12/11 04:13:14;;;;;;;;;;;21.90;40.40;;;;;;5130224;27;20416;-83
2021/12/11 04:15:42;;;;;;;;;;;21.90;40.40;;;;;;5130305;27;20249;-81
2021/12/11 04:18:12;;;;;;;;;;;21.90;40.40;;;;;;5129626;27;19912;-82
2021/12/11 04:20:40;;;;;;;;;;;21.90;40.40;;;;;;5129607;27;19912;-81
2021/12/11 04:23:11;;;;;;;;;;;21.90;40.40;;;;;;5128432;27;19908;-82
2021/12/11 04:25:40;;;;;;;;;;;21.90;40.40;;;;;;5128521;27;19955;-80
2021/12/11 04:28:05;;;;;;;;;;;21.90;40.40;;;;;;5130065;27;19940;-80
2021/12/11 04:30:31;;;;;;;;;;;21.90;40.30;;;;;;5112929;28;19954;-80
2021/12/11 04:32:57;;;;;;;;;;;21.90;40.30;;;;;;5112600;28;19919;-81
2021/12/11 04:35:27;;;;;;;;;;;21.90;40.30;;;;;;5129595;27;19912;-83
2021/12/11 04:37:52;;;;;;;;;;;21.80;40.30;;;;;;5128787;27;19916;-79
2021/12/11 04:40:22;;;;;;;;;;;21.80;40.30;;;;;;5095482;28;19965;-80
2021/12/11 04:42:55;;;;;;;;;;;21.80;40.30;;;;;;5096787;28;20363;-80
2021/12/11 04:45:23;;;;;;;;;;;21.90;40.30;;;;;;5127409;27;20341;-80
2021/12/11 04:47:58;;;;;;;;;;;21.90;40.30;;;;;;5129496;27;19909;-81
2021/12/11 04:50:36;;;;;;;;;;;21.90;40.30;;;;;;5096405;28;20364;-79
2021/12/11 04:53:17;;;;;;;;;;;21.80;40.30;;;;;;5126883;27;20225;-81
2021/12/11 04:55:59;;;;;;;;;;;21.80;40.30;;;;;;5126967;27;19923;-82
2021/12/11 05:11:16;;;;;;;;;;;21.80;40.30;;;;;;5096118;28;20046;-83
2021/12/11 05:13:42;;;;;;;;;;;21.80;40.30;;;;;;5112434;28;20030;-79
2021/12/11 05:16:09;;;;;;;;;;;21.80;40.20;;;;;;5129421;27;19955;-80
2021/12/11 05:18:35;;;;;;;;;;;21.80;40.20;;;;;;5129598;27;19919;-82
2021/12/11 05:21:01;;;;;;;;;;;21.80;40.20;;;;;;5129980;27;19912;-81
2021/12/11 05:23:27;;;;;;;;;;;21.80;40.20;;;;;;5112734;28;19909;-82
2021/12/11 05:25:55;;;;;;;;;;;21.80;40.20;;;;;;5096053;28;19973;-79
2021/12/11 05:28:20;;;;;;;;;;;21.80;40.20;;;;;;5112083;28;19926;-81
2021/12/11 05:30:47;;;;;;;;;;;21.80;40.20;;;;;;5129081;27;19908;-81
2021/12/11 05:33:13;;;;;;;;;;;21.80;40.20;;;;;;5129706;27;20248;-78
2021/12/11 05:35:41;;;;;;;;;;;21.80;40.20;;;;;;5133277;27;19919;-80
2021/12/11 05:38:07;;;;;;;;;;;21.80;40.20;;;;;;5133688;27;19908;-78
2021/12/11 05:40:33;;;;;;;;;;;21.80;40.20;;;;;;5130386;27;19927;-83
2021/12/11 05:43:03;;;;;;;;;;;21.80;40.20;;;;;;5128632;27;19994;-81
2021/12/11 05:45:31;;;;;;;;;;;21.80;40.20;;;;;;5111349;28;19908;-81
2021/12/11 05:47:57;;;;;;;;;;;21.80;40.20;;;;;;5111059;28;19908;-79
2021/12/11 05:50:27;;;;;;;;;;;21.80;40.20;;;;;;5111428;28;20416;-81
2021/12/11 05:52:53;;;;;;;;;;;21.80;40.20;;;;;;5111031;28;19908;-83
2021/12/11 05:55:20;;;;;;;;;;;21.80;40.20;;;;;;5128250;27;19919;-80
2021/12/11 05:57:51;;;;;;;;;;;21.80;40.20;;;;;;5111024;28;19908;-80
2021/12/11 06:00:17;;;;;;;;;;;21.80;40.20;;;;;;5127002;28;19920;-81
2021/12/11 06:02:45;;;;;;;;;;;21.80;40.20;;;;;;5128616;28;19921;-82
2021/12/11 06:05:13;;;;;;;;;;;21.80;40.20;;;;;;5128776;28;20325;-80
2021/12/11 06:07:43;;;;;;;;;;;21.80;40.20;;;;;;5128413;28;19908;-81
2021/12/11 06:10:10;;;;;;;;;;;21.80;40.20;;;;;;5127351;28;19908;-79
2021/12/11 06:12:36;;;;;;;;;;;21.80;40.20;;;;;;5128096;28;19908;-79
2021/12/11 06:15:01;;;;;;;;;;;21.80;40.20;;;;;;5094970;28;19919;-78
2021/12/11 06:17:28;;;;;;;;;;;21.80;40.20;;;;;;5111009;28;19908;-79
2021/12/11 06:19:54;;;;;;;;;;;21.80;40.20;;;;;;5128096;28;19912;-80
2021/12/11 06:22:20;;;;;;;;;;;21.80;40.10;;;;;;5128075;28;19920;-79
2021/12/11 06:24:46;;;;;;;;;;;21.80;40.20;;;;;;5094488;28;20404;-81
2021/12/11 06:27:13;;;;;;;;;;;21.80;40.10;;;;;;5111298;28;19959;-83
2021/12/11 06:29:41;;;;;;;;;;;21.80;40.10;;;;;;5110681;28;19908;-81
2021/12/11 06:32:07;;;;;;;;;;;21.80;40.20;;;;;;5127382;28;19908;-79
2021/12/11 06:34:34;;;;;;;;;;;21.80;40.10;;;;;;5111027;28;19923;-80
2021/12/11 06:37:02;;;;;;;;;;;21.80;40.20;;;;;;5127877;28;19924;-81
2021/12/11 06:39:30;;;;;;;;;;;21.80;40.20;;;;;;5127347;28;19918;-82
2021/12/11 06:41:59;;;;;;;;;;;21.80;40.20;;;;;;5127449;28;19912;-79
2021/12/11 06:44:28;;;;;;;;;;;21.80;40.10;;;;;;5127413;28;20003;-82
2021/12/11 06:47:00;;;;;;;;;;;21.80;40.20;;;;;;5096539;28;19943;-78
2021/12/11 06:49:28;;;;;;;;;;;21.80;40.20;;;;;;5114592;28;20412;-86
2021/12/11 06:51:54;;;;;;;;;;;21.80;40.20;;;;;;5097990;28;19908;-80
2021/12/11 06:54:22;;;;;;;;;;;21.80;40.20;;;;;;5132205;27;19919;-80
2021/12/11 06:56:47;;;;;;;;;;;21.80;40.20;;;;;;5098028;28;20298;-83
2021/12/11 06:59:15;;;;;;;;;;;21.80;40.20;;;;;;5131495;27;19926;-79
2021/12/11 07:01:43;;;;;;;;;;;21.80;40.50;;;;;;5119783;27;19927;-85
2021/12/11 07:04:11;;;;;;;;;;;21.80;39.20;;;;;;5114088;28;20268;-82
2021/12/11 07:06:37;;;;;;;;;;;21.80;39.90;;;;;;5080927;28;19908;-79
2021/12/11 07:09:06;;;;;;;;;;;21.90;39.40;;;;;;5106159;28;19911;-81
2021/12/11 07:11:39;;;;;;;;;;;22.00;39.00;;;;;;5117850;28;19908;-79
2021/12/11 07:14:05;;;;;;;;;;;22.10;38.70;;;;;;5101547;28;19995;-79
2021/12/11 07:16:33;;;;;;;;;;;22.10;38.50;;;;;;5117934;28;19955;-78
2021/12/11 07:18:58;;;;;;;;;;;22.20;38.40;;;;;;5080436;28;20341;-80
2021/12/11 07:21:26;;;;;;;;;;;22.20;38.30;;;;;;5097929;28;19997;-78
2021/12/11 07:23:54;;;;;;;;;;;22.30;38.30;;;;;;5097269;28;19909;-84
2021/12/11 07:26:23;;;;;;;;;;;22.30;38.30;;;;;;5097239;28;20229;-80
2021/12/11 07:28:50;;;;;;;;;;;22.40;38.60;;;;;;5097052;28;20030;-83
2021/12/11 07:31:18;;;;;;;;;;;22.30;38.60;;;;;;5097130;28;20289;-80
2021/12/11 07:33:46;;;;;;;;;;;22.40;38.70;;;;;;5097155;28;19931;-83
2021/12/11 07:36:14;;;;;;;;;;;22.40;38.70;;;;;;5097218;28;19958;-81
2021/12/11 07:38:39;;;;;;;;;;;22.40;38.70;;;;;;5080246;28;20215;-82
2021/12/11 07:41:10;;;;;;;;;;;22.40;38.40;;;;;;5080011;28;19923;-82
2021/12/11 07:43:36;;;;;;;;;;;22.40;38.40;;;;;;5080728;28;20268;-81
2021/12/11 07:46:02;;;;;;;;;;;22.50;38.70;;;;;;5097268;28;20400;-79
2021/12/11 07:48:30;;;;;;;;;;;22.50;39.20;;;;;;5096852;28;19908;-83
2021/12/11 07:50:56;;;;;;;;;;;22.50;39.50;;;;;;5079806;28;19919;-82
2021/12/11 07:53:21;;;;;;;;;;;22.50;39.80;;;;;;5096633;28;19908;-81
2021/12/11 07:55:47;;;;;;;;;;;22.50;40.30;;;;;;5096543;28;20048;-81
2021/12/11 07:58:15;;;;;;;;;;;22.60;45.80;;;;;;5096307;28;20029;-82
2021/12/11 08:00:41;;;;;;;;;;;22.60;51.00;;;;;;5097188;28;19972;-80
2021/12/11 08:03:06;;;;;;;;;;;22.60;52.20;;;;;;5079644;28;19991;-79
2021/12/11 08:05:34;;;;;;;;;;;22.70;53.30;;;;;;5097178;28;19969;-80
2021/12/11 08:08:05;;;;;;;;;;;22.70;53.00;;;;;;5079836;28;20329;-81
2021/12/11 08:10:31;;;;;;;;;;;22.70;52.90;;;;;;5063182;28;20329;-79
2021/12/11 08:12:57;;;;;;;;;;;22.70;52.90;;;;;;5097505;28;19919;-79
2021/12/11 08:15:22;;;;;;;;;;;22.70;52.70;;;;;;5062898;28;19965;-80
2021/12/11 08:17:54;;;;;;;;;;;22.70;52.40;;;;;;5079224;28;19908;-78
2021/12/11 08:20:22;;;;;;;;;;;22.70;52.10;;;;;;5063304;28;19911;-78
2021/12/11 08:22:48;;;;;;;;;;;22.70;51.90;;;;;;5079436;28;19920;-78
2021/12/11 08:25:13;;;;;;;;;;;22.70;51.70;;;;;;5078875;28;19996;-79
2021/12/11 08:27:41;;;;;;;;;;;22.70;51.30;;;;;;5079137;28;19908;-81
2021/12/11 08:30:09;;;;;;;;;;;22.70;51.10;;;;;;5079406;28;19908;-79
2021/12/11 08:32:35;;;;;;;;;;;22.70;50.80;;;;;;5078791;28;19983;-81
2021/12/11 08:35:01;;;;;;;;;;;22.80;50.80;;;;;;5096737;28;19951;-79
2021/12/11 08:37:29;;;;;;;;;;;22.80;50.70;;;;;;5079048;28;19950;-80
2021/12/11 08:39:55;;;;;;;;;;;22.70;50.40;;;;;;5062628;28;19919;-81
2021/12/11 08:42:21;;;;;;;;;;;22.70;50.10;;;;;;5078733;28;19908;-80
2021/12/11 08:44:52;;;;;;;;;;;22.80;50.10;;;;;;5078809;28;19915;-77
2021/12/11 08:47:18;;;;;;;;;;;22.70;49.70;;;;;;5062432;28;20003;-76
2021/12/11 08:49:48;;;;;;;;;;;22.80;49.60;;;;;;5078965;28;19939;-81
2021/12/11 08:52:19;;;;;;;;;;;22.80;49.50;;;;;;5078968;28;20392;-80
2021/12/11 08:54:45;;;;;;;;;;;22.80;49.20;;;;;;5078609;28;19909;-76
2021/12/11 08:57:13;;;;;;;;;;;22.80;49.20;;;;;;5061990;28;19931;-78
2021/12/11 08:59:41;;;;;;;;;;;22.80;48.90;;;;;;5082414;28;19960;-78
2021/12/11 09:02:23;;;;;;;;;;;22.80;48.70;;;;;;5078316;28;19912;-77
2021/12/11 09:04:53;;;;;;;;;;;22.80;48.50;;;;;;5095372;28;20340;-79
2021/12/11 09:07:22;;;;;;;;;;;22.80;48.60;;;;;;5078965;28;19908;-77
2021/12/11 09:09:52;;;;;;;;;;;22.80;48.30;;;;;;5078286;28;19923;-81
2021/12/11 09:12:20;;;;;;;;;;;22.80;48.10;;;;;;5095271;28;19908;-76
2021/12/11 09:14:48;;;;;;;;;;;22.80;48.00;;;;;;5077898;28;20006;-79
2021/12/11 09:17:17;;;;;;;;;;;22.80;47.80;;;;;;5095617;28;19908;-81
2021/12/11 09:19:42;;;;;;;;;;;22.80;47.80;;;;;;5094511;28;19912;-79
2021/12/11 09:22:16;;;;;;;;;;;22.80;47.60;;;;;;5095810;28;19909;-80
2021/12/11 09:24:46;;;;;;;;;;;22.80;47.50;;;;;;5095555;28;19931;-79
2021/12/11 09:27:22;;;;;;;;;;;22.80;47.40;;;;;;5095552;28;20261;-74
2021/12/11 09:30:08;;;;;;;;;;;22.80;47.40;;;;;;5094614;28;19908;-77
2021/12/11 09:32:36;;;;;;;;;;;22.80;47.30;;;;;;5095041;28;20247;-78
2021/12/11 09:35:10;;;;;;;;;;;22.80;47.20;;;;;;5094753;28;19962;-79
2021/12/11 09:37:35;;;;;;;;;;;22.80;47.20;;;;;;5077556;28;19909;-81
2021/12/11 09:40:15;;;;;;;;;;;22.80;47.00;;;;;;5094479;28;20231;-78
2021/12/11 09:42:40;;;;;;;;;;;22.80;47.00;;;;;;5077859;28;20293;-77
2021/12/11 09:45:08;;;;;;;;;;;22.80;46.80;;;;;;5095276;28;20030;-76
2021/12/11 09:47:35;;;;;;;;;;;22.80;46.80;;;;;;5094697;28;19912;-76
2021/12/11 09:50:04;;;;;;;;;;;22.80;46.70;;;;;;5094267;28;19923;-76
2021/12/11 09:52:35;;;;;;;;;;;22.90;46.70;;;;;;5095673;28;19908;-76
2021/12/11 09:55:04;;;;;;;;;;;22.80;46.60;;;;;;5095066;28;20036;-78
2021/12/11 09:57:33;;;;;;;;;;;22.90;46.50;;;;;;5095726;28;19938;-78
2021/12/11 09:59:59;;;;;;;;;;;22.80;46.30;;;;;;5095213;28;20394;-75
2021/12/11 10:02:26;;;;;;;;;;;22.80;46.30;;;;;;5077665;28;19912;-76
2021/12/11 10:05:07;;;;;;;;;;;22.80;46.20;;;;;;5077753;28;19962;-76
2021/12/11 10:07:37;;;;;;;;;;;22.90;46.20;;;;;;5078145;28;19923;-79
2021/12/11 10:10:06;;;;;;;;;;;22.80;46.20;;;;;;5078152;28;20357;-80
2021/12/11 10:12:35;;;;;;;;;;;22.80;46.00;;;;;;5095099;28;19918;-78
2021/12/11 10:15:01;;;;;;;;;;;22.90;46.00;;;;;;5099246;28;19908;-76
2021/12/11 10:17:30;;;;;;;;;;;22.80;46.40;;;;;;5102122;28;20352;-76
2021/12/11 10:19:59;;;;;;;;;;;22.80;46.50;;;;;;5061650;28;19912;-78
2021/12/11 10:22:26;;;;;;;;;;;22.80;46.80;;;;;;5063660;28;20263;-81
2021/12/11 10:24:52;;;;;;;;;;;22.80;46.80;;;;;;5099368;28;19908;-79
2021/12/11 10:27:19;;;;;;;;;;;22.70;46.90;;;;;;5064683;28;19919;-79
2021/12/11 10:29:50;;;;;;;;;;;22.70;46.60;;;;;;5081432;28;19908;-78
2021/12/11 10:32:16;;;;;;;;;;;22.80;45.90;;;;;;5065091;28;19916;-80
2021/12/11 10:34:43;;;;;;;;;;;22.80;45.50;;;;;;5081605;28;19947;-79
2021/12/11 10:37:15;;;;;;;;;;;22.80;45.40;;;;;;5064331;28;19962;-84
2021/12/11 10:39:41;;;;;;;;;;;22.90;45.20;;;;;;5064218;28;19923;-81
2021/12/11 10:42:12;;;;;;;;;;;22.90;45.20;;;;;;5064190;28;19915;-79
2021/12/11 10:44:40;;;;;;;;;;;22.90;45.00;;;;;;5098578;28;19973;-83
2021/12/11 10:47:16;;;;;;;;;;;23.00;45.00;;;;;;5064068;28;20005;-80
2021/12/11 10:49:41;;;;;;;;;;;23.00;44.80;;;;;;5081394;28;19916;-80
2021/12/11 10:52:13;;;;;;;;;;;23.00;44.70;;;;;;5064406;28;20349;-82
2021/12/11 10:54:38;;;;;;;;;;;23.00;44.80;;;;;;5064380;28;19908;-80
2021/12/11 10:57:06;;;;;;;;;;;23.00;44.80;;;;;;5064694;28;19984;-80
2021/12/11 10:59:33;;;;;;;;;;;23.00;44.70;;;;;;5067479;28;19920;-81
2021/12/11 11:02:18;;;;;;;;;;;23.00;44.70;;;;;;5080797;28;19962;-82
2021/12/11 11:04:54;;;;;;;;;;;23.00;44.70;;;;;;5081403;28;19912;-83
2021/12/11 11:07:20;;;;;;;;;;;23.00;44.70;;;;;;5097625;28;19908;-82
2021/12/11 11:09:46;;;;;;;;;;;23.00;44.60;;;;;;5080502;28;20400;-82
2021/12/11 11:12:12;;;;;;;;;;;23.00;44.60;;;;;;5080300;28;20370;-82
2021/12/11 11:14:38;;;;;;;;;;;23.10;44.60;;;;;;5097179;28;19919;-81
2021/12/11 11:17:08;;;;;;;;;;;23.00;44.50;;;;;;5097285;28;19916;-80
2021/12/11 11:19:40;;;;;;;;;;;23.10;44.50;;;;;;5097281;28;19916;-84
2021/12/11 11:22:07;;;;;;;;;;;23.10;44.40;;;;;;5096981;28;19908;-77
2021/12/11 11:24:38;;;;;;;;;;;23.10;44.40;;;;;;5080037;28;19916;-80
2021/12/11 11:27:04;;;;;;;;;;;23.10;44.40;;;;;;5080094;28;19912;-76
2021/12/11 11:29:31;;;;;;;;;;;23.10;44.30;;;;;;5079841;28;20325;-79
2021/12/11 11:31:59;;;;;;;;;;;23.20;44.30;;;;;;5079688;28;19930;-80
2021/12/11 11:34:26;;;;;;;;;;;23.10;44.20;;;;;;5096728;28;19916;-77
2021/12/11 11:36:52;;;;;;;;;;;23.10;44.10;;;;;;5080176;28;19950;-78
2021/12/11 11:39:18;;;;;;;;;;;23.10;44.00;;;;;;5096560;28;19908;-77
2021/12/11 11:41:47;;;;;;;;;;;23.10;44.00;;;;;;5096605;28;20285;-81
2021/12/11 11:44:12;;;;;;;;;;;23.20;43.90;;;;;;5096662;28;19947;-77
2021/12/11 11:46:38;;;;;;;;;;;23.10;43.90;;;;;;5096362;28;19931;-78
2021/12/11 11:49:06;;;;;;;;;;;23.10;43.80;;;;;;5096187;28;19908;-76
2021/12/11 11:51:36;;;;;;;;;;;23.10;43.80;;;;;;5096333;28;19919;-78
2021/12/11 11:54:02;;;;;;;;;;;23.10;43.80;;;;;;5096138;28;19908;-77
2021/12/11 11:56:29;;;;;;;;;;;23.10;43.70;;;;;;5079237;28;20245;-78
2021/12/11 11:58:57;;;;;;;;;;;23.10;43.60;;;;;;5097080;28;19908;-81
2021/12/11 12:01:30;;;;;;;;;;;23.10;43.60;;;;;;5062453;28;19924;-77
2021/12/11 12:03:56;;;;;;;;;;;23.10;43.50;;;;;;5062600;28;19908;-77
2021/12/11 12:06:25;;;;;;;;;;;23.10;43.50;;;;;;5079214;28;19919;-78
2021/12/11 12:08:54;;;;;;;;;;;23.20;43.50;;;;;;5079698;28;19908;-78
2021/12/11 12:11:25;;;;;;;;;;;23.20;43.40;;;;;;5096824;28;19920;-77
2021/12/11 12:13:53;;;;;;;;;;;23.10;43.20;;;;;;5062653;28;20325;-77
2021/12/11 12:16:19;;;;;;;;;;;23.20;43.20;;;;;;5096667;28;19915;-77
2021/12/11 12:18:47;;;;;;;;;;;23.20;43.20;;;;;;5078916;28;19971;-80
2021/12/11 12:21:14;;;;;;;;;;;23.20;43.20;;;;;;5079557;28;19912;-76
2021/12/11 12:23:40;;;;;;;;;;;23.20;43.20;;;;;;5079327;28;19908;-76
2021/12/11 12:26:10;;;;;;;;;;;23.20;43.20;;;;;;5097190;28;20343;-77
2021/12/11 12:28:35;;;;;;;;;;;23.20;43.10;;;;;;5079302;28;19908;-75
2021/12/11 12:31:02;;;;;;;;;;;23.20;43.10;;;;;;5079158;28;20355;-77
2021/12/11 12:33:28;;;;;;;;;;;23.20;43.00;;;;;;5096694;28;20006;-79
2021/12/11 12:35:54;;;;;;;;;;;23.20;43.00;;;;;;5062164;28;19959;-76
2021/12/11 12:38:20;;;;;;;;;;;23.30;43.10;;;;;;5078823;28;20305;-76
2021/12/11 12:40:59;;;;;;;;;;;23.30;43.00;;;;;;5061696;28;20332;-78
2021/12/11 12:46:18;;;;;;;;;;;23.30;42.90;;;;;;5080552;28;20050;-79
2021/12/11 12:48:43;;;;;;;;;;;23.30;43.00;;;;;;5078789;28;19948;-77
2021/12/11 12:51:14;;;;;;;;;;;23.30;42.90;;;;;;5061855;28;20404;-77
2021/12/11 12:53:39;;;;;;;;;;;23.30;42.90;;;;;;5085133;28;20008;-77
2021/12/11 12:56:09;;;;;;;;;;;23.30;43.10;;;;;;5061496;28;20028;-78
2021/12/11 12:58:39;;;;;;;;;;;23.30;43.50;;;;;;5078428;28;19909;-74
2021/12/11 13:01:11;;;;;;;;;;;23.20;43.60;;;;;;5114097;28;19919;-75
2021/12/11 13:03:37;;;;;;;;;;;23.10;43.80;;;;;;5095246;28;19918;-74
2021/12/11 13:06:04;;;;;;;;;;;23.10;44.40;;;;;;5095439;28;19915;-73
2021/12/11 13:08:31;;;;;;;;;;;23.10;44.40;;;;;;5078090;28;20240;-75
2021/12/11 13:11:06;;;;;;;;;;;23.10;44.20;;;;;;5099232;28;19908;-80
2021/12/11 13:13:32;;;;;;;;;;;23.20;43.70;;;;;;5128690;27;19908;-77
2021/12/11 13:15:57;;;;;;;;;;;23.30;43.50;;;;;;5128923;27;19908;-81
2021/12/11 13:18:26;;;;;;;;;;;23.30;43.40;;;;;;5095559;28;19912;-78
2021/12/11 13:21:02;;;;;;;;;;;23.30;43.30;;;;;;5128133;27;19912;-78
2021/12/11 13:23:27;;;;;;;;;;;23.20;43.20;;;;;;5095837;28;19938;-75
2021/12/11 13:25:56;;;;;;;;;;;23.20;43.10;;;;;;5095274;28;19919;-73
2021/12/11 13:28:23;;;;;;;;;;;23.20;43.10;;;;;;5128351;27;19908;-77
2021/12/11 13:30:50;;;;;;;;;;;23.20;43.00;;;;;;5095325;28;19937;-76
2021/12/11 13:33:19;;;;;;;;;;;23.10;43.00;;;;;;5111576;28;19954;-81
2021/12/11 13:35:44;;;;;;;;;;;23.10;43.00;;;;;;5095295;28;19945;-75
2021/12/11 13:38:11;;;;;;;;;;;23.10;42.90;;;;;;5128701;27;20384;-76
2021/12/11 13:40:37;;;;;;;;;;;23.10;42.90;;;;;;5095442;28;20355;-78
2021/12/11 13:43:03;;;;;;;;;;;23.00;42.80;;;;;;5095282;28;20304;-78
2021/12/11 13:45:30;;;;;;;;;;;23.00;43.30;;;;;;5095552;28;19908;-76
2021/12/11 13:47:58;;;;;;;;;;;23.00;42.70;;;;;;5094587;28;20010;-80
2021/12/11 13:50:33;;;;;;;;;;;23.00;42.70;;;;;;5127949;27;19912;-79
2021/12/11 13:53:01;;;;;;;;;;;23.00;42.70;;;;;;5111258;28;19908;-77
2021/12/11 13:55:27;;;;;;;;;;;23.00;42.60;;;;;;5095605;28;19951;-78
2021/12/11 13:57:57;;;;;;;;;;;23.00;42.60;;;;;;5095493;28;19969;-79
2021/12/11 14:00:26;;;;;;;;;;;23.00;42.60;;;;;;5126986;27;20033;-78
2021/12/11 14:02:52;;;;;;;;;;;23.00;42.60;;;;;;5095173;28;19908;-73
2021/12/11 14:05:18;;;;;;;;;;;23.00;42.60;;;;;;5128257;28;20066;-73
2021/12/11 14:07:46;;;;;;;;;;;23.00;42.50;;;;;;5095207;28;19912;-77
2021/12/11 14:10:19;;;;;;;;;;;23.00;42.50;;;;;;5094157;28;19908;-75
2021/12/11 14:12:45;;;;;;;;;;;22.90;42.40;;;;;;5126495;28;19909;-76
2021/12/11 14:15:11;;;;;;;;;;;22.90;42.40;;;;;;5094018;28;20380;-78
2021/12/11 14:17:36;;;;;;;;;;;22.90;42.40;;;;;;5095223;28;19912;-75
2021/12/11 14:20:02;;;;;;;;;;;22.90;42.30;;;;;;5094375;28;19966;-76
2021/12/11 14:22:28;;;;;;;;;;;22.90;42.30;;;;;;5128228;28;20340;-78
2021/12/11 14:24:53;;;;;;;;;;;22.90;42.30;;;;;;5111420;28;19958;-79
2021/12/11 14:27:19;;;;;;;;;;;22.90;42.30;;;;;;5111194;28;19963;-76
2021/12/11 14:29:46;;;;;;;;;;;22.90;42.30;;;;;;5095149;28;20343;-76
2021/12/11 14:32:12;;;;;;;;;;;22.90;42.30;;;;;;5128312;28;19958;-79
2021/12/11 14:34:40;;;;;;;;;;;22.90;42.20;;;;;;5128004;28;19908;-78
2021/12/11 14:37:06;;;;;;;;;;;22.90;42.20;;;;;;5127434;28;19908;-76
2021/12/11 14:39:31;;;;;;;;;;;22.90;42.20;;;;;;5111105;28;19945;-77